Terminal Aerodrome Forecast
Issued by NWS Shreveport, LA

Home | Current Version | Previous Version | Text Only | Print | Product List | Glossary On
Versions: 1 2 3 4 5 6 7 8 9 10 11 12 13 14 15 16 17 18 19
000
FTUS44 KSHV 221148
TAFGGG
TAF
KGGG 221148Z 2212/2312 31010KT P6SM OVC005
     FM221500 32011G18KT P6SM OVC010
     FM221900 30013G22KT P6SM BKN020
     FM230200 29009KT P6SM SCT040
     FM231000 29009KT P6SM BKN025=

USA.gov is the U.S. government's official web portal to all federal, state and local government web resources and services.